createdAt,value
2018-12-15T00:00:41.067Z,21.80
2018-12-15T00:01:41.108Z,22.00
2018-12-15T00:02:41.093Z,21.50
2018-12-15T00:03:41.118Z,22.10
2018-12-15T00:04:41.040Z,22.10
2018-12-15T00:05:41.049Z,21.10
2018-12-15T00:06:41.032Z,21.00
2018-12-15T00:07:41.060Z,21.50
2018-12-15T00:08:41.025Z,20.60
2018-12-15T00:12:03.365Z,19.00
2018-12-15T00:13:03.264Z,19.80
2018-12-15T00:14:03.288Z,20.80
2018-12-15T00:15:03.288Z,20.60
2018-12-15T00:16:12.665Z,20.20
2018-12-15T00:17:05.834Z,20.00
2018-12-15T00:18:03.244Z,19.90
2018-12-15T00:19:12.689Z,19.00
2018-12-15T00:20:03.200Z,19.50
2018-12-15T00:21:03.403Z,18.60
2018-12-15T00:22:03.215Z,18.50
2018-12-15T00:23:03.171Z,18.90
2018-12-15T00:24:03.161Z,19.30
2018-12-15T00:25:03.147Z,18.20
2018-12-15T00:26:12.518Z,18.90
2018-12-15T00:27:03.112Z,18.70
2018-12-15T00:28:03.137Z,18.60
2018-12-15T00:29:03.095Z,17.70
2018-12-15T00:30:03.086Z,17.80
2018-12-15T00:31:03.070Z,17.10
2018-12-15T00:32:03.102Z,17.80
2018-12-15T00:33:03.052Z,18.00
2018-12-15T00:34:03.037Z,17.80
2018-12-15T00:35:03.040Z,17.50
2018-12-15T00:36:03.057Z,17.80
2018-12-15T00:37:03.095Z,17.40
2018-12-15T00:38:03.021Z,16.70
2018-12-15T00:39:03.002Z,16.70
2018-12-15T00:40:03.068Z,17.50
2018-12-15T00:41:03.296Z,16.60
2018-12-15T00:42:03.356Z,16.60
2018-12-15T00:43:02.987Z,16.70
2018-12-15T00:44:02.977Z,16.10
2018-12-15T00:45:02.941Z,16.30
2018-12-15T00:46:03.250Z,16.70
2018-12-15T00:47:02.958Z,16.20
2018-12-15T00:48:02.969Z,16.40
2018-12-15T00:49:02.975Z,16.50
2018-12-15T00:50:12.239Z,17.00
2018-12-15T00:51:02.895Z,16.90
2018-12-15T00:52:12.262Z,17.10
2018-12-15T00:53:11.462Z,16.70
2018-12-15T00:54:02.845Z,16.60
2018-12-15T00:55:11.329Z,17.00
2018-12-15T00:56:02.863Z,16.30
2018-12-15T00:57:02.855Z,16.30
2018-12-15T00:59:21.719Z,16.10
2018-12-15T01:01:31.890Z,16.10
2018-12-15T01:02:31.852Z,17.30
2018-12-15T01:03:31.855Z,16.70
2018-12-15T01:04:31.870Z,16.60
2018-12-15T01:05:31.856Z,17.00
2018-12-15T01:06:31.836Z,17.10
2018-12-15T01:07:31.828Z,16.80
2018-12-15T01:08:31.813Z,16.70
2018-12-15T01:09:31.930Z,16.60
2018-12-15T01:10:31.809Z,16.40
2018-12-15T01:11:31.789Z,16.40
2018-12-15T01:12:31.763Z,16.80
2018-12-15T01:13:31.770Z,17.00
2018-12-15T01:14:31.769Z,16.90
2018-12-15T01:15:31.825Z,16.90
2018-12-15T01:16:31.762Z,17.10
2018-12-15T01:17:31.806Z,16.40
2018-12-15T01:18:31.786Z,16.80
2018-12-15T01:19:31.746Z,16.60
2018-12-15T01:20:31.732Z,16.40
2018-12-15T01:21:31.699Z,16.30
2018-12-15T01:22:31.650Z,16.90
2018-12-15T01:23:31.644Z,16.50
2018-12-15T01:24:31.734Z,16.80
2018-12-15T01:25:31.631Z,16.60
2018-12-15T01:26:31.626Z,16.30
2018-12-15T01:27:31.619Z,16.50
2018-12-15T01:28:31.726Z,16.80
2018-12-15T01:29:31.592Z,16.00
2018-12-15T01:30:31.596Z,16.50
2018-12-15T01:31:31.590Z,17.00
2018-12-15T01:32:31.737Z,16.60
2018-12-15T01:33:31.550Z,16.70
2018-12-15T01:34:31.553Z,16.30
2018-12-15T01:35:31.516Z,16.80
2018-12-15T01:36:31.533Z,18.60
2018-12-15T01:37:31.535Z,18.10
2018-12-15T01:38:31.523Z,16.90
2018-12-15T01:39:31.507Z,17.00
2018-12-15T01:40:31.473Z,16.30
2018-12-15T01:41:31.496Z,16.70
2018-12-15T01:42:31.451Z,16.40
2018-12-15T01:43:31.473Z,16.00
2018-12-15T01:44:46.217Z,16.10
2018-12-15T01:45:31.439Z,17.50
2018-12-15T01:46:33.672Z,16.20
2018-12-15T01:47:31.465Z,16.00
2018-12-15T01:48:31.413Z,15.70
2018-12-15T01:49:31.401Z,16.00
2018-12-15T01:50:31.405Z,16.30
2018-12-15T01:51:31.428Z,15.30
2018-12-15T01:52:31.412Z,15.70
2018-12-15T01:53:31.356Z,15.80
2018-12-15T01:54:31.800Z,15.30
2018-12-15T01:55:31.360Z,15.00
2018-12-15T01:56:31.313Z,14.80
2018-12-15T01:57:32.104Z,15.20
2018-12-15T01:58:31.452Z,14.90
2018-12-15T01:59:31.324Z,15.40
2018-12-15T02:00:31.280Z,14.90
2018-12-15T02:01:31.268Z,15.10
2018-12-15T02:02:31.271Z,14.60
2018-12-15T02:03:31.262Z,14.90
2018-12-15T02:04:31.245Z,14.80
2018-12-15T02:05:51.600Z,14.90
2018-12-15T02:06:31.224Z,14.80
2018-12-15T02:07:31.207Z,14.80
2018-12-15T02:08:31.222Z,15.10
2018-12-15T02:09:31.179Z,14.40
2018-12-15T02:10:31.186Z,14.30
2018-12-15T02:11:31.161Z,14.80
2018-12-15T02:12:31.671Z,13.90
2018-12-15T02:13:31.151Z,15.00
2018-12-15T02:14:31.160Z,14.20
2018-12-15T02:15:31.168Z,14.10
2018-12-15T02:16:32.101Z,14.90
2018-12-15T02:17:33.721Z,13.90
2018-12-15T02:18:31.107Z,14.20
2018-12-15T02:19:31.071Z,14.30
2018-12-15T02:20:31.082Z,13.60
2018-12-15T02:21:31.071Z,13.60
2018-12-15T02:22:31.039Z,13.40
2018-12-15T02:23:31.042Z,13.80
2018-12-15T02:24:31.019Z,14.10
2018-12-15T02:25:31.064Z,13.80
2018-12-15T02:26:31.012Z,13.60
2018-12-15T02:27:35.865Z,13.80
2018-12-15T02:28:31.025Z,13.70
2018-12-15T02:29:30.980Z,13.60
2018-12-15T02:30:30.962Z,13.50
2018-12-15T02:31:31.009Z,13.40
2018-12-15T02:32:30.974Z,13.50
2018-12-15T02:33:31.692Z,13.20
2018-12-15T02:34:30.932Z,13.50
2018-12-15T02:35:30.923Z,13.80
2018-12-15T02:36:30.918Z,13.30
2018-12-15T02:37:30.947Z,13.10
2018-12-15T02:38:30.872Z,13.20
2018-12-15T02:39:30.898Z,13.50
2018-12-15T02:40:30.878Z,12.40
2018-12-15T02:41:30.883Z,13.00
2018-12-15T02:42:30.917Z,12.60
2018-12-15T02:43:30.867Z,12.00
2018-12-15T02:44:30.840Z,12.40
2018-12-15T02:45:33.699Z,12.10
2018-12-15T02:46:30.802Z,12.60
2018-12-15T02:47:30.799Z,12.90
2018-12-15T02:48:30.818Z,12.30
2018-12-15T02:49:30.823Z,12.20
2018-12-15T02:50:30.792Z,11.90
2018-12-15T02:51:30.743Z,11.80
2018-12-15T02:52:30.740Z,12.00
2018-12-15T02:53:31.234Z,11.90
2018-12-15T02:54:31.678Z,12.00
2018-12-15T02:55:30.737Z,11.90
2018-12-15T02:56:30.720Z,11.80
2018-12-15T02:57:30.694Z,11.40
2018-12-15T02:58:31.691Z,11.70
2018-12-15T02:59:30.789Z,11.80
2018-12-15T03:00:31.619Z,11.60
2018-12-15T03:01:30.673Z,11.70
2018-12-15T03:02:30.669Z,11.90
2018-12-15T03:03:31.183Z,11.50
2018-12-15T03:04:30.663Z,12.00
2018-12-15T03:05:31.200Z,11.50
2018-12-15T03:06:31.202Z,11.40
2018-12-15T03:07:30.619Z,11.80
2018-12-15T03:08:30.629Z,11.40
2018-12-15T03:09:30.603Z,11.60
2018-12-15T03:10:32.015Z,11.70
2018-12-15T03:11:30.584Z,11.40
2018-12-15T03:12:30.556Z,11.40
2018-12-15T03:13:30.566Z,11.50
2018-12-15T03:14:30.532Z,10.90
2018-12-15T03:15:32.548Z,11.30
2018-12-15T03:16:30.970Z,11.80
2018-12-15T03:17:31.816Z,11.40
2018-12-15T03:18:30.518Z,11.30
2018-12-15T03:19:30.540Z,10.80
2018-12-15T03:20:31.608Z,11.40
2018-12-15T03:21:30.486Z,11.30
2018-12-15T03:22:30.667Z,11.20
2018-12-15T03:23:30.463Z,11.00
2018-12-15T03:24:31.105Z,11.20
2018-12-15T03:25:30.455Z,11.00
2018-12-15T03:26:30.405Z,10.90
2018-12-15T03:27:30.409Z,11.00
2018-12-15T03:28:30.413Z,11.30
2018-12-15T03:29:30.423Z,11.30
2018-12-15T03:30:30.386Z,10.90
2018-12-15T03:31:35.125Z,11.30
2018-12-15T03:32:30.377Z,11.10
2018-12-15T03:33:30.366Z,11.20
2018-12-15T03:34:30.360Z,11.40
2018-12-15T03:35:30.362Z,11.00
2018-12-15T03:36:30.342Z,10.90
2018-12-15T03:37:30.304Z,11.10
2018-12-15T03:38:30.300Z,10.90
2018-12-15T03:39:30.357Z,11.40
2018-12-15T03:40:30.255Z,11.20
2018-12-15T03:41:30.269Z,11.20
2018-12-15T03:42:30.266Z,11.00
2018-12-15T03:43:30.252Z,10.70
2018-12-15T03:44:30.228Z,10.80
2018-12-15T03:45:30.256Z,10.90
2018-12-15T03:46:30.248Z,11.40
2018-12-15T03:47:30.229Z,10.70
2018-12-15T03:48:30.186Z,10.90
2018-12-15T03:49:30.193Z,10.70
2018-12-15T03:50:30.182Z,11.10
2018-12-15T03:51:30.146Z,11.30
2018-12-15T03:52:30.918Z,11.30
2018-12-15T03:53:30.223Z,10.30
2018-12-15T03:54:30.131Z,10.40
2018-12-15T03:55:30.120Z,10.40
2018-12-15T03:56:30.121Z,10.60
2018-12-15T03:57:30.144Z,10.50
2018-12-15T03:58:30.086Z,10.70
2018-12-15T03:59:30.094Z,10.60
2018-12-15T04:00:30.080Z,10.50
2018-12-15T04:01:30.087Z,11.20
2018-12-15T04:02:30.060Z,10.30
2018-12-15T04:03:30.082Z,10.80
2018-12-15T04:04:30.025Z,11.10
2018-12-15T04:05:30.061Z,11.10
2018-12-15T04:06:30.016Z,10.90
2018-12-15T04:07:29.997Z,10.50
2018-12-15T04:08:30.028Z,11.30
2018-12-15T04:09:29.995Z,11.00
2018-12-15T04:10:29.988Z,10.60
2018-12-15T04:11:30.003Z,10.60
2018-12-15T04:12:30.006Z,10.80
2018-12-15T04:13:29.949Z,10.80
2018-12-15T04:14:29.940Z,11.30
2018-12-15T04:15:29.940Z,11.10
2018-12-15T04:16:29.928Z,11.20
2018-12-15T04:17:29.904Z,11.80
2018-12-15T04:18:29.978Z,11.50
2018-12-15T04:19:29.878Z,12.00
2018-12-15T04:20:29.863Z,11.10
2018-12-15T04:21:29.871Z,11.10
2018-12-15T04:22:29.866Z,11.20
2018-12-15T04:23:29.896Z,10.80
2018-12-15T04:24:29.838Z,11.20
2018-12-15T04:25:29.845Z,11.10
2018-12-15T04:26:29.810Z,11.20
2018-12-15T04:27:29.800Z,11.00
2018-12-15T04:28:29.778Z,10.90
2018-12-15T04:29:29.793Z,10.60
2018-12-15T04:30:29.778Z,11.20
2018-12-15T04:31:29.757Z,11.40
2018-12-15T04:32:29.729Z,11.20
2018-12-15T04:33:29.748Z,11.20
2018-12-15T04:34:29.765Z,11.40
2018-12-15T04:35:29.705Z,11.00
2018-12-15T04:36:29.721Z,11.40
2018-12-15T04:37:29.695Z,10.90
2018-12-15T04:38:29.694Z,11.20
2018-12-15T04:39:29.801Z,11.50
2018-12-15T04:40:29.672Z,11.20
2018-12-15T04:41:29.646Z,11.20
2018-12-15T04:42:29.633Z,11.50
2018-12-15T04:43:29.639Z,11.60
2018-12-15T04:44:29.648Z,11.70
2018-12-15T04:45:29.682Z,13.00
2018-12-15T04:46:29.600Z,11.00
2018-12-15T04:47:29.627Z,11.60
2018-12-15T04:48:29.592Z,11.80
2018-12-15T04:49:29.580Z,12.10
2018-12-15T04:50:29.605Z,11.90
2018-12-15T04:51:29.539Z,12.00
2018-12-15T04:52:29.548Z,12.80
2018-12-15T04:53:29.517Z,12.10
2018-12-15T04:54:29.511Z,11.50
2018-12-15T04:55:29.538Z,12.20
2018-12-15T04:56:29.538Z,12.10
2018-12-15T04:57:29.467Z,12.70
2018-12-15T04:58:29.508Z,12.20
2018-12-15T04:59:29.487Z,12.40
2018-12-15T05:00:29.487Z,12.10
2018-12-15T05:01:29.461Z,12.10
2018-12-15T05:02:29.484Z,12.20
2018-12-15T05:03:29.414Z,12.20
2018-12-15T05:04:29.393Z,12.70
2018-12-15T05:05:29.441Z,12.10
2018-12-15T05:06:29.393Z,12.50
2018-12-15T05:07:29.391Z,12.50
2018-12-15T05:08:29.380Z,12.40
2018-12-15T05:09:29.352Z,12.60
2018-12-15T05:10:29.350Z,12.90
2018-12-15T05:11:29.337Z,12.70
2018-12-15T05:12:29.358Z,12.50
2018-12-15T05:13:29.386Z,12.70
2018-12-15T05:14:29.362Z,12.60
2018-12-15T05:15:29.294Z,12.00
2018-12-15T05:16:29.319Z,12.80
2018-12-15T05:17:29.299Z,13.00
2018-12-15T05:18:29.263Z,12.60
2018-12-15T05:19:29.268Z,12.80
2018-12-15T05:20:29.262Z,12.70
2018-12-15T05:21:29.388Z,12.50
2018-12-15T05:22:29.255Z,12.60
2018-12-15T05:23:29.260Z,12.70
2018-12-15T05:24:29.372Z,12.60
2018-12-15T05:25:29.251Z,12.60
2018-12-15T05:26:29.190Z,12.90
2018-12-15T05:27:29.188Z,12.70
2018-12-15T05:28:29.177Z,13.10
2018-12-15T05:29:29.179Z,13.10
2018-12-15T05:30:29.174Z,13.30
2018-12-15T05:31:29.145Z,12.80
2018-12-15T05:32:29.131Z,12.90
2018-12-15T05:33:29.156Z,12.60
2018-12-15T05:34:29.118Z,13.20
2018-12-15T05:35:29.230Z,13.10
2018-12-15T05:36:29.092Z,12.50
2018-12-15T05:37:29.065Z,12.50
2018-12-15T05:38:29.082Z,13.20
2018-12-15T05:39:29.110Z,12.70
2018-12-15T05:40:29.120Z,12.40
2018-12-15T05:41:29.056Z,13.00
2018-12-15T05:42:29.032Z,12.20
2018-12-15T05:43:29.005Z,12.10
2018-12-15T05:44:29.006Z,12.00
2018-12-15T05:45:29.014Z,12.40
2018-12-15T05:46:29.028Z,12.40
2018-12-15T05:47:28.958Z,12.50
2018-12-15T05:48:29.032Z,12.60
2018-12-15T05:49:28.968Z,12.40
2018-12-15T05:50:28.953Z,12.70
2018-12-15T05:51:28.967Z,11.80
2018-12-15T05:52:28.918Z,12.30
2018-12-15T05:53:28.913Z,12.20
2018-12-15T05:54:28.943Z,12.20
2018-12-15T05:55:28.897Z,12.20
2018-12-15T05:56:28.899Z,12.40
2018-12-15T05:57:28.872Z,12.60
2018-12-15T05:58:28.863Z,12.20
2018-12-15T05:59:28.914Z,12.50
2018-12-15T06:00:28.842Z,12.80
2018-12-15T06:01:28.836Z,12.50
2018-12-15T06:02:28.816Z,13.00
2018-12-15T06:03:28.800Z,12.80
2018-12-15T06:04:29.014Z,12.30
2018-12-15T06:05:28.809Z,12.50
2018-12-15T06:06:28.790Z,12.60
2018-12-15T06:07:28.788Z,13.00
2018-12-15T06:08:28.771Z,12.50
2018-12-15T06:09:28.796Z,12.60
2018-12-15T06:10:28.791Z,13.10
2018-12-15T06:11:28.741Z,12.50
2018-12-15T06:12:28.744Z,12.20
2018-12-15T06:13:28.745Z,12.30
2018-12-15T06:14:28.708Z,12.60
2018-12-15T06:15:28.726Z,12.90
2018-12-15T06:16:28.684Z,13.00
2018-12-15T06:17:28.707Z,12.50
2018-12-15T06:18:31.668Z,12.60
2018-12-15T06:19:28.690Z,13.10
2018-12-15T06:20:28.656Z,12.60
2018-12-15T06:21:28.645Z,12.50
2018-12-15T06:22:28.717Z,13.40
2018-12-15T06:23:28.656Z,12.70
2018-12-15T06:24:28.587Z,12.80
2018-12-15T06:25:28.663Z,12.50
2018-12-15T06:26:28.578Z,12.30
2018-12-15T06:27:28.562Z,12.80
2018-12-15T06:28:28.571Z,12.40
2018-12-15T06:29:29.126Z,12.50
2018-12-15T06:30:28.529Z,12.50
2018-12-15T06:31:28.562Z,13.10
2018-12-15T06:32:28.535Z,12.70
2018-12-15T06:33:28.585Z,13.00
2018-12-15T06:34:28.510Z,12.80
2018-12-15T06:35:28.500Z,12.60
2018-12-15T06:36:28.496Z,12.80
2018-12-15T06:37:28.462Z,12.90
2018-12-15T06:38:28.481Z,13.00
2018-12-15T06:39:28.512Z,12.40
2018-12-15T06:40:28.446Z,12.90
2018-12-15T06:41:28.469Z,13.10
2018-12-15T06:42:28.470Z,13.00
2018-12-15T06:43:28.441Z,12.80
2018-12-15T06:44:28.426Z,13.30
2018-12-15T06:45:28.422Z,13.40
2018-12-15T06:46:28.378Z,13.00
2018-12-15T06:47:28.415Z,13.30
2018-12-15T06:48:28.363Z,13.00
2018-12-15T06:49:28.378Z,13.20
2018-12-15T06:50:28.388Z,13.20
2018-12-15T06:51:28.425Z,13.30
2018-12-15T06:52:28.314Z,13.20
2018-12-15T06:53:28.299Z,12.80
2018-12-15T06:54:28.607Z,13.10
2018-12-15T06:55:28.289Z,12.90
2018-12-15T06:56:28.270Z,12.80
2018-12-15T06:57:28.262Z,13.10
2018-12-15T06:58:28.275Z,13.00
2018-12-15T06:59:28.244Z,12.70
2018-12-15T07:00:28.773Z,13.10
2018-12-15T07:01:28.254Z,13.00
2018-12-15T07:02:28.258Z,13.10
2018-12-15T07:03:29.183Z,12.70
2018-12-15T07:04:28.195Z,12.80
2018-12-15T07:05:28.183Z,12.50
2018-12-15T07:06:28.291Z,13.40
2018-12-15T07:07:28.264Z,13.00
2018-12-15T07:08:28.253Z,13.10
2018-12-15T07:09:28.170Z,13.10
2018-12-15T07:10:28.161Z,13.10
2018-12-15T07:11:28.167Z,12.90
2018-12-15T07:12:28.212Z,12.80
2018-12-15T07:13:28.631Z,12.70
2018-12-15T07:14:28.119Z,12.80
2018-12-15T07:15:29.258Z,12.60
2018-12-15T07:16:28.134Z,13.00
2018-12-15T07:17:28.076Z,13.50
2018-12-15T07:18:28.088Z,13.20
2018-12-15T07:19:28.093Z,13.20
2018-12-15T07:20:28.140Z,13.10
2018-12-15T07:21:28.097Z,13.20
2018-12-15T07:22:28.057Z,13.60
2018-12-15T07:23:28.071Z,13.20
2018-12-15T07:24:28.017Z,14.00
2018-12-15T07:25:27.980Z,13.50
2018-12-15T07:26:28.007Z,13.60
2018-12-15T07:27:28.013Z,13.40
2018-12-15T07:28:27.967Z,13.50
2018-12-15T07:29:28.028Z,13.20
2018-12-15T07:30:27.987Z,13.20
2018-12-15T07:31:28.054Z,13.70
2018-12-15T07:32:27.969Z,13.70
2018-12-15T07:33:27.974Z,13.50
2018-12-15T07:34:27.967Z,13.90
2018-12-15T07:35:27.975Z,13.90
2018-12-15T07:36:27.915Z,13.90
2018-12-15T07:37:27.899Z,14.40
2018-12-15T07:38:27.915Z,14.20
2018-12-15T07:39:28.545Z,14.50
2018-12-15T07:40:27.841Z,14.00
2018-12-15T07:41:27.932Z,14.50
2018-12-15T07:42:27.933Z,14.60
2018-12-15T07:43:28.630Z,14.70
2018-12-15T07:44:27.805Z,14.80
2018-12-15T07:45:27.980Z,14.40
2018-12-15T07:46:27.789Z,14.90
2018-12-15T07:47:27.806Z,14.30
2018-12-15T07:48:27.794Z,14.70
2018-12-15T07:49:27.729Z,14.20
2018-12-15T07:50:27.742Z,14.00
2018-12-15T07:51:27.739Z,14.40
2018-12-15T07:52:27.759Z,14.20
2018-12-15T07:53:27.704Z,14.10
2018-12-15T07:54:27.696Z,14.50
2018-12-15T07:55:27.752Z,14.00
2018-12-15T07:56:27.821Z,13.90
2018-12-15T07:57:27.648Z,14.20
2018-12-15T07:58:27.654Z,13.70
2018-12-15T07:59:27.636Z,14.20
2018-12-15T08:00:27.667Z,14.40
2018-12-15T08:01:27.660Z,14.40
2018-12-15T08:02:27.600Z,14.80
2018-12-15T08:03:27.622Z,14.10
2018-12-15T08:04:28.131Z,14.90
2018-12-15T08:05:27.636Z,14.90
2018-12-15T08:06:27.588Z,14.80
2018-12-15T08:07:27.619Z,14.80
2018-12-15T08:08:27.594Z,15.40
2018-12-15T08:09:27.632Z,14.50
2018-12-15T08:10:27.590Z,15.30
2018-12-15T08:11:27.513Z,15.10
2018-12-15T08:12:27.520Z,14.80
2018-12-15T08:13:27.510Z,14.70
2018-12-15T08:14:27.552Z,15.00
2018-12-15T08:15:27.495Z,15.30
2018-12-15T08:16:27.479Z,15.30
2018-12-15T08:17:27.738Z,14.80
2018-12-15T08:18:27.468Z,15.10
2018-12-15T08:19:27.467Z,15.10
2018-12-15T08:20:27.453Z,15.20
2018-12-15T08:21:27.430Z,15.70
2018-12-15T08:22:27.417Z,15.40
2018-12-15T08:23:28.196Z,14.90
2018-12-15T08:24:27.398Z,15.50
2018-12-15T08:25:27.400Z,14.80
2018-12-15T08:26:27.375Z,15.30
2018-12-15T08:27:27.386Z,15.30
2018-12-15T08:28:27.343Z,15.20
2018-12-15T08:29:27.343Z,15.10
2018-12-15T08:30:27.391Z,15.40
2018-12-15T08:31:27.304Z,14.40
2018-12-15T08:32:27.300Z,15.00
2018-12-15T08:33:27.316Z,14.40
2018-12-15T08:34:27.473Z,14.20
2018-12-15T08:35:27.294Z,15.10
2018-12-15T08:36:27.262Z,14.90
2018-12-15T08:37:27.247Z,15.40
2018-12-15T08:38:27.255Z,15.60
2018-12-15T08:39:27.320Z,15.20
2018-12-15T08:40:27.484Z,15.20
2018-12-15T08:41:27.209Z,15.50
2018-12-15T08:42:27.226Z,14.90
2018-12-15T08:43:27.471Z,15.00
2018-12-15T08:44:27.216Z,15.30
2018-12-15T08:45:27.215Z,15.10
2018-12-15T08:46:27.153Z,15.80
2018-12-15T08:47:28.390Z,15.40
2018-12-15T08:48:27.283Z,15.20
2018-12-15T08:49:27.242Z,15.70
2018-12-15T08:50:27.114Z,15.40
2018-12-15T08:51:27.166Z,15.30
2018-12-15T08:52:27.122Z,15.00
2018-12-15T08:53:27.158Z,15.10
2018-12-15T08:54:27.081Z,15.30
2018-12-15T08:55:27.093Z,15.30
2018-12-15T08:56:27.086Z,14.80
2018-12-15T08:57:27.187Z,14.30
2018-12-15T08:58:27.046Z,14.80
2018-12-15T08:59:27.122Z,14.90
2018-12-15T09:00:27.014Z,14.60
2018-12-15T09:01:26.996Z,15.30
2018-12-15T09:02:26.974Z,15.70
2018-12-15T09:03:27.093Z,15.70
2018-12-15T09:04:27.101Z,15.60
2018-12-15T09:05:26.991Z,15.40
2018-12-15T09:06:26.961Z,15.00
2018-12-15T09:07:26.981Z,15.50
2018-12-15T09:08:27.635Z,14.80
2018-12-15T09:09:26.996Z,15.30
2018-12-15T09:10:26.917Z,15.50
2018-12-15T09:11:26.899Z,14.80
2018-12-15T09:12:27.079Z,15.40
2018-12-15T09:13:27.630Z,14.90
2018-12-15T09:14:26.908Z,15.30
2018-12-15T09:15:26.860Z,14.90
2018-12-15T09:16:26.961Z,15.50
2018-12-15T09:17:26.865Z,15.60
2018-12-15T09:18:26.867Z,14.50
2018-12-15T09:19:26.861Z,15.00
2018-12-15T09:20:26.906Z,15.10
2018-12-15T09:21:26.808Z,15.30
2018-12-15T09:22:26.799Z,15.10
2018-12-15T09:23:26.831Z,15.70
2018-12-15T09:24:26.840Z,15.10
2018-12-15T09:25:26.814Z,15.20
2018-12-15T09:26:26.749Z,15.60
2018-12-15T09:27:26.737Z,15.60
2018-12-15T09:28:26.785Z,15.30
2018-12-15T09:29:26.764Z,15.10
2018-12-15T09:30:26.708Z,15.20
2018-12-15T09:31:26.729Z,15.30
2018-12-15T09:32:26.762Z,15.00
2018-12-15T09:33:26.692Z,14.80
2018-12-15T09:34:26.655Z,15.60
2018-12-15T09:35:26.668Z,15.10
2018-12-15T09:36:26.655Z,15.60
2018-12-15T09:37:26.630Z,15.70
2018-12-15T09:38:26.728Z,15.70
2018-12-15T09:39:26.629Z,15.90
2018-12-15T09:40:26.656Z,15.40
2018-12-15T09:41:26.616Z,15.80
2018-12-15T09:42:26.633Z,15.90
2018-12-15T09:43:26.574Z,16.40
2018-12-15T09:44:26.581Z,16.70
2018-12-15T09:45:26.569Z,16.10
2018-12-15T09:46:26.641Z,16.00
2018-12-15T09:47:26.530Z,16.20
2018-12-15T09:48:26.532Z,16.60
2018-12-15T09:49:26.525Z,16.50
2018-12-15T09:50:26.560Z,16.30
2018-12-15T09:51:26.483Z,16.40
2018-12-15T09:52:26.500Z,16.50
2018-12-15T09:53:26.467Z,15.80
2018-12-15T09:54:26.472Z,16.30
2018-12-15T09:55:26.456Z,16.50
2018-12-15T09:56:26.429Z,16.40
2018-12-15T09:58:56.070Z,17.20
2018-12-15T09:59:56.258Z,16.40
2018-12-15T10:00:55.998Z,16.40
2018-12-15T10:01:56.131Z,16.80
2018-12-15T10:02:56.034Z,17.40
2018-12-15T10:03:57.229Z,17.50
2018-12-15T10:04:56.111Z,16.60
2018-12-15T10:05:55.996Z,17.30
2018-12-15T10:06:56.947Z,17.40
2018-12-15T10:07:56.274Z,16.70
2018-12-15T10:08:55.980Z,16.90
2018-12-15T10:09:56.004Z,17.20
2018-12-15T10:10:55.894Z,17.60
2018-12-15T10:11:55.909Z,17.50
2018-12-15T10:12:55.892Z,17.00
2018-12-15T10:13:56.558Z,17.90
2018-12-15T10:14:55.977Z,17.30
2018-12-15T10:15:55.896Z,17.60
2018-12-15T10:16:55.907Z,17.10
2018-12-15T10:17:55.847Z,17.60
2018-12-15T10:19:05.222Z,18.20
2018-12-15T10:20:03.809Z,18.00
2018-12-15T10:20:55.783Z,17.90
2018-12-15T10:21:55.846Z,17.60
2018-12-15T10:23:06.375Z,18.10
2018-12-15T10:23:55.783Z,17.90
2018-12-15T10:24:55.971Z,18.20
2018-12-15T10:25:55.896Z,19.10
2018-12-15T10:26:55.808Z,19.30
2018-12-15T10:27:55.738Z,19.20
2018-12-15T10:28:55.763Z,19.20
2018-12-15T10:29:55.705Z,19.50
2018-12-15T10:30:55.727Z,19.30
2018-12-15T10:31:55.731Z,18.70
2018-12-15T10:32:55.701Z,19.00
2018-12-15T10:33:55.659Z,19.10
2018-12-15T10:34:55.646Z,19.80
2018-12-15T10:35:55.707Z,19.30
2018-12-15T10:36:55.625Z,20.00
2018-12-15T10:37:55.776Z,19.10
2018-12-15T10:38:55.611Z,19.10
2018-12-15T10:39:55.587Z,19.30
2018-12-15T10:40:55.621Z,19.80
2018-12-15T10:41:55.589Z,19.70
2018-12-15T10:42:55.644Z,20.10
2018-12-15T10:43:55.557Z,20.20
2018-12-15T10:44:55.563Z,19.60
2018-12-15T10:45:55.533Z,20.00
2018-12-15T10:46:55.538Z,19.20
2018-12-15T10:47:55.506Z,20.00
2018-12-15T10:48:55.509Z,20.20
2018-12-15T10:49:55.521Z,19.60
2018-12-15T10:50:55.487Z,19.60
2018-12-15T10:51:55.489Z,20.50
2018-12-15T10:52:55.468Z,19.40
2018-12-15T10:53:55.432Z,19.70
2018-12-15T10:54:55.474Z,20.40
2018-12-15T10:55:55.424Z,20.30
2018-12-15T10:56:55.504Z,21.00
2018-12-15T10:57:55.426Z,20.30
2018-12-15T10:58:55.391Z,20.60
2018-12-15T10:59:55.424Z,20.30
2018-12-15T11:00:55.432Z,19.60
2018-12-15T11:01:55.376Z,19.80
2018-12-15T11:02:55.373Z,19.60
2018-12-15T11:04:00.671Z,20.30
2018-12-15T11:04:56.332Z,20.20
2018-12-15T11:05:55.361Z,20.30
2018-12-15T11:06:55.353Z,20.00
2018-12-15T11:07:55.300Z,20.10
2018-12-15T11:08:55.264Z,20.40
2018-12-15T11:09:55.281Z,20.20
2018-12-15T11:10:55.268Z,21.40
2018-12-15T11:11:55.283Z,21.20
2018-12-15T11:12:55.258Z,20.30
2018-12-15T11:13:56.754Z,21.40
2018-12-15T11:14:55.214Z,20.60
2018-12-15T11:15:55.210Z,20.50
2018-12-15T11:16:55.225Z,20.50
2018-12-15T11:17:55.197Z,21.00
2018-12-15T11:18:55.203Z,20.50
2018-12-15T11:19:55.154Z,21.00
2018-12-15T11:20:55.159Z,20.90
2018-12-15T11:21:55.173Z,21.40
2018-12-15T11:22:55.218Z,20.70
2018-12-15T11:23:55.159Z,21.10
2018-12-15T11:24:55.154Z,21.50
2018-12-15T11:25:55.111Z,21.70
2018-12-15T11:26:55.168Z,22.00
2018-12-15T11:27:55.095Z,20.90
2018-12-15T11:28:55.119Z,20.60
2018-12-15T11:29:55.122Z,21.10
2018-12-15T11:30:55.094Z,21.30
2018-12-15T11:31:55.039Z,20.50
2018-12-15T11:32:55.041Z,20.50
2018-12-15T11:33:55.184Z,21.10
2018-12-15T11:34:55.021Z,21.60
2018-12-15T11:35:55.001Z,21.20
2018-12-15T11:36:55.313Z,21.40
2018-12-15T11:37:55.128Z,21.90
2018-12-15T11:38:54.964Z,21.00
2018-12-15T11:39:55.310Z,21.60
2018-12-15T11:40:55.011Z,21.20
2018-12-15T11:41:54.951Z,21.60
2018-12-15T11:42:54.946Z,21.70
2018-12-15T11:43:54.997Z,21.70
2018-12-15T11:44:54.972Z,21.80
2018-12-15T11:45:54.914Z,21.70
2018-12-15T11:46:54.903Z,22.20
2018-12-15T11:47:54.945Z,22.50
2018-12-15T11:48:54.888Z,21.70
2018-12-15T11:49:54.877Z,21.70
2018-12-15T11:50:54.860Z,22.20
2018-12-15T11:51:54.849Z,22.00
2018-12-15T11:52:54.832Z,22.30
2018-12-15T11:53:54.859Z,21.80
2018-12-15T11:54:54.798Z,22.50
2018-12-15T11:55:54.924Z,21.60
2018-12-15T11:56:54.801Z,22.50
2018-12-15T11:57:54.797Z,22.90
2018-12-15T11:58:54.786Z,22.50
2018-12-15T11:59:54.810Z,22.60
2018-12-15T12:00:54.790Z,22.30
2018-12-15T12:01:54.733Z,22.80
2018-12-15T12:02:54.705Z,22.00
2018-12-15T12:03:54.729Z,21.20
2018-12-15T12:04:54.784Z,21.50
2018-12-15T12:05:54.699Z,22.30
2018-12-15T12:06:54.682Z,22.00
2018-12-15T12:07:54.709Z,21.90
2018-12-15T12:10:11.892Z,21.60
2018-12-15T12:11:11.731Z,22.60
2018-12-15T12:12:11.745Z,22.60
2018-12-15T12:13:11.740Z,23.00
2018-12-15T12:14:11.718Z,21.50
2018-12-15T12:15:11.745Z,22.10
2018-12-15T12:16:11.719Z,21.60
2018-12-15T12:17:11.716Z,22.30
2018-12-15T12:18:11.718Z,22.10
2018-12-15T12:19:11.717Z,21.90
2018-12-15T12:20:11.671Z,21.90
2018-12-15T12:21:11.654Z,22.80
2018-12-15T12:22:11.659Z,22.30
2018-12-15T12:23:11.638Z,21.80
2018-12-15T12:24:11.639Z,21.60
2018-12-15T12:25:11.667Z,22.00
2018-12-15T12:26:11.600Z,22.30
2018-12-15T12:27:12.517Z,21.60
2018-12-15T12:28:11.604Z,21.70
2018-12-15T12:29:11.589Z,21.80
2018-12-15T12:30:11.591Z,21.40
2018-12-15T12:31:11.562Z,22.40
2018-12-15T12:32:11.563Z,22.90
2018-12-15T12:33:11.588Z,22.20
2018-12-15T12:34:11.506Z,22.00
2018-12-15T12:35:11.522Z,22.20
2018-12-15T12:36:11.496Z,23.30
2018-12-15T12:37:11.532Z,22.80
2018-12-15T12:38:11.509Z,22.20
2018-12-15T12:39:11.498Z,22.80
2018-12-15T12:40:11.474Z,50.70
2018-12-15T12:41:11.447Z,61.90
2018-12-15T12:42:11.422Z,47.70
2018-12-15T12:43:11.444Z,30.10
2018-12-15T12:44:11.404Z,23.70
2018-12-15T12:45:11.417Z,23.30
2018-12-15T12:46:11.417Z,23.10
2018-12-15T12:47:11.427Z,22.50
2018-12-15T12:48:11.406Z,23.20
2018-12-15T12:49:11.379Z,23.50
2018-12-15T12:50:11.375Z,23.20
2018-12-15T12:51:11.409Z,23.20
2018-12-15T12:52:11.364Z,21.80
2018-12-15T12:53:11.348Z,22.10
2018-12-15T12:54:11.344Z,22.00
2018-12-15T12:55:11.382Z,21.70
2018-12-15T12:56:11.305Z,21.10
2018-12-15T12:57:11.284Z,22.30
2018-12-15T12:58:11.327Z,21.90
2018-12-15T12:59:11.285Z,22.20
2018-12-15T13:00:11.291Z,22.70